Time;durP1;ratioP1;P1;durP2;ratioP2;P2;SDS_P1;SDS_P2;PMS_P1;PMS_P2;Temp;Humidity;BMP_temperature;BMP_pressure;BME280_temperature;BME280_humidity;BME280_pressure;Samples;Min_cycle;Max_cycle;Signal;HPM_P1;HPM_P2
2021/12/15 00:00:11;;;;;;;32.10;21.25;;;;;;;11.08;100.00;102775.41;5065246;28;20070;-73
2021/12/15 00:02:36;;;;;;;36.05;22.60;;;;;;;10.98;100.00;102760.38;5064621;28;20105;-73
2021/12/15 00:05:05;;;;;;;33.67;21.15;;;;;;;11.20;100.00;102777.09;5060938;28;20111;-73
2021/12/15 00:07:31;;;;;;;33.00;21.30;;;;;;;11.06;100.00;102767.41;5065017;28;20028;-73
2021/12/15 00:09:56;;;;;;;31.52;20.13;;;;;;;11.08;100.00;102773.50;5065424;28;20024;-73
2021/12/15 00:12:23;;;;;;;30.55;20.80;;;;;;;11.16;100.00;102769.56;5065039;28;20024;-73
2021/12/15 00:14:50;;;;;;;31.05;20.90;;;;;;;11.00;100.00;102769.22;5062916;28;20078;-74
2021/12/15 00:17:16;;;;;;;34.55;21.10;;;;;;;11.04;100.00;102766.81;5049188;28;20097;-73
2021/12/15 00:19:42;;;;;;;32.15;20.63;;;;;;;11.03;100.00;102773.38;5060786;28;20041;-73
2021/12/15 00:22:08;;;;;;;34.83;21.50;;;;;;;11.08;100.00;102767.19;5064754;28;20123;-73
2021/12/15 00:24:34;;;;;;;32.70;20.30;;;;;;;10.99;100.00;102764.78;5062120;28;20119;-73
2021/12/15 00:27:00;;;;;;;31.25;20.23;;;;;;;11.07;100.00;102765.50;5068249;28;20502;-73
2021/12/15 00:29:26;;;;;;;34.60;21.10;;;;;;;11.10;100.00;102760.38;5063245;28;20065;-73
2021/12/15 00:31:52;;;;;;;31.48;20.75;;;;;;;10.83;100.00;102766.31;5047961;28;20032;-72
2021/12/15 00:34:19;;;;;;;31.88;20.02;;;;;;;10.96;100.00;102778.16;5060165;28;20085;-73
2021/12/15 00:36:45;;;;;;;35.90;20.88;;;;;;;11.04;100.00;102764.06;5062713;28;20043;-73
2021/12/15 00:39:15;;;;;;;29.77;19.65;;;;;;;10.90;100.00;102765.38;5065562;28;20043;-73
2021/12/15 00:41:41;;;;;;;34.38;20.05;;;;;;;11.05;100.00;102768.47;5063105;28;20020;-73
2021/12/15 00:44:07;;;;;;;35.97;20.90;;;;;;;10.97;100.00;102763.34;5064675;28;20116;-73
2021/12/15 00:46:33;;;;;;;36.25;21.35;;;;;;;11.04;100.00;102764.06;5062436;28;20123;-73
2021/12/15 00:48:59;;;;;;;30.27;19.35;;;;;;;11.16;100.00;102769.56;5062890;28;20098;-73
2021/12/15 00:51:26;;;;;;;33.78;19.20;;;;;;;11.09;100.00;102766.94;5060948;28;20055;-73
2021/12/15 00:53:52;;;;;;;30.35;19.67;;;;;;;11.01;100.00;102765.38;5064677;28;20074;-73
2021/12/15 00:56:18;;;;;;;27.50;18.48;;;;;;;11.16;100.00;102764.06;5065354;28;20115;-73
2021/12/15 00:58:43;;;;;;;31.80;18.13;;;;;;;11.21;100.00;102766.94;5043008;28;20037;-73
2021/12/15 01:01:10;;;;;;;30.45;18.63;;;;;;;11.03;100.00;102763.25;5045770;28;20029;-73
2021/12/15 01:03:36;;;;;;;33.15;19.17;;;;;;;10.97;100.00;102768.84;5042238;28;20039;-73
2021/12/15 01:06:07;;;;;;;25.83;18.98;;;;;;;11.10;100.00;102767.75;5041221;28;20025;-74
2021/12/15 01:08:40;;;;;;;33.33;18.70;;;;;;;10.96;100.00;102770.75;5043190;28;20160;-74
2021/12/15 01:11:26;;;;;;;25.88;18.00;;;;;;;11.10;100.00;102760.38;5043781;28;20194;-73
2021/12/15 01:19:51;;;;;;;27.80;18.80;;;;;;;11.20;100.00;102765.28;5040162;28;20040;-73
2021/12/15 01:22:25;;;;;;;29.63;18.40;;;;;;;11.18;100.00;102761.91;5048448;28;20040;-73
2021/12/15 01:24:54;;;;;;;31.27;19.55;;;;;;;11.32;100.00;102766.09;5043235;28;20360;-74
2021/12/15 01:27:20;;;;;;;29.88;18.00;;;;;;;11.32;100.00;102763.34;5025085;28;20036;-73
2021/12/15 01:29:46;;;;;;;34.15;20.02;;;;;;;11.02;100.00;102763.50;5024147;28;20024;-73
2021/12/15 01:32:12;;;;;;;36.40;20.40;;;;;;;11.29;100.00;102761.06;5024904;28;20040;-73
2021/12/15 01:34:38;;;;;;;30.65;19.20;;;;;;;11.17;100.00;102769.31;5037573;28;20021;-73
2021/12/15 01:37:03;;;;;;;28.80;18.52;;;;;;;10.97;100.00;102763.34;5041378;28;20518;-74
2021/12/15 01:39:29;;;;;;;29.05;18.77;;;;;;;10.93;100.00;102767.66;5028793;28;20029;-73
2021/12/15 01:41:56;;;;;;;35.35;19.52;;;;;;;11.11;100.00;102772.19;5062270;28;20134;-73
2021/12/15 01:46:56;;;;;;;27.90;18.83;;;;;;;10.92;100.00;102783.28;5060631;28;20442;-72
2021/12/15 01:49:44;;;;;;;29.75;18.52;;;;;;;11.20;100.00;102771.59;5059003;28;20461;-72
2021/12/15 01:52:14;;;;;;;31.08;17.90;;;;;;;11.12;100.00;102779.38;5064284;28;20466;-72
2021/12/15 01:54:42;;;;;;;29.90;17.58;;;;;;;11.21;100.00;102781.53;5063153;28;20117;-71
2021/12/15 01:57:10;;;;;;;27.85;17.25;;;;;;;11.09;100.00;102788.91;5061894;28;20069;-71
2021/12/15 01:59:35;;;;;;;29.02;17.33;;;;;;;11.03;100.00;102795.34;5060258;28;20024;-71
2021/12/15 02:02:02;;;;;;;29.52;18.15;;;;;;;11.07;100.00;102799.28;5063700;28;20033;-72
2021/12/15 02:04:29;;;;;;;30.70;17.58;;;;;;;10.93;100.00;102800.59;5056008;28;20055;-71
2021/12/15 02:06:55;;;;;;;25.48;16.30;;;;;;;11.22;100.00;102787.84;5046243;28;20592;-72
2021/12/15 02:10:09;;;;;;;28.65;17.88;;;;;;;11.07;100.00;102801.19;5045183;28;20028;-72
2021/12/15 02:12:10;;;;;;;28.75;17.10;;;;;;;11.14;100.00;102796.44;5058770;28;20118;-72
2021/12/15 02:14:36;;;;;;;27.80;16.63;;;;;;;11.01;100.00;102797.50;5062251;28;20045;-72
2021/12/15 02:17:02;;;;;;;32.20;18.63;;;;;;;11.06;100.00;102802.28;5062198;28;20029;-71
2021/12/15 02:19:30;;;;;;;30.42;18.20;;;;;;;10.94;100.00;102800.34;5058535;28;20113;-72
2021/12/15 02:21:58;;;;;;;29.20;17.63;;;;;;;11.02;100.00;102800.00;5045180;28;20036;-72
2021/12/15 02:24:23;;;;;;;26.45;18.15;;;;;;;10.98;100.00;102808.94;5064389;28;20040;-72
2021/12/15 02:26:55;;;;;;;26.80;18.65;;;;;;;11.11;100.00;102808.72;5061554;28;20878;-72
2021/12/15 02:29:22;;;;;;;30.30;18.30;;;;;;;10.93;100.00;102806.91;5046028;28;20056;-72
2021/12/15 02:37:20;;;;;;;33.53;18.98;;;;;;;11.16;100.00;102791.53;5063544;28;20273;-73
2021/12/15 02:39:51;;;;;;;31.50;17.67;;;;;;;10.96;100.00;102797.38;5061163;28;20195;-72
2021/12/15 02:42:17;;;;;;;30.70;19.95;;;;;;;11.12;100.00;102796.66;5064215;28;20028;-72
2021/12/15 02:44:44;;;;;;;32.63;19.85;;;;;;;11.15;100.00;102792.59;5061933;28;20024;-71
2021/12/15 02:47:12;;;;;;;33.25;20.52;;;;;;;11.00;100.00;102795.81;5063930;28;20090;-73
2021/12/15 02:49:38;;;;;;;31.77;19.88;;;;;;;11.19;100.00;102796.53;5057468;28;20119;-72
2021/12/15 02:52:06;;;;;;;31.83;20.52;;;;;;;11.19;100.00;102793.78;5062694;28;20139;-72
2021/12/15 02:54:33;;;;;;;36.55;20.52;;;;;;;10.95;100.00;102799.28;5063723;28;20028;-72
2021/12/15 02:57:05;;;;;;;37.10;21.48;;;;;;;11.11;100.00;102805.97;5063721;28;20052;-72
2021/12/15 02:59:42;;;;;;;36.92;20.08;;;;;;;10.94;100.00;102799.53;5065087;28;20032;-71
2021/12/15 03:04:44;;;;;;;35.03;20.75;;;;;;;11.10;100.00;102803.44;5061803;28;20028;-72
2021/12/15 03:07:18;;;;;;;34.45;20.15;;;;;;;11.07;100.00;102810.28;5065569;28;20236;-73
2021/12/15 03:15:35;;;;;;;33.47;21.45;;;;;;;11.07;100.00;102810.28;5065592;28;20086;-72
2021/12/15 03:18:13;;;;;;;34.33;21.23;;;;;;;10.97;100.00;102808.09;5048944;28;20029;-71
2021/12/15 03:20:48;;;;;;;33.70;20.15;;;;;;;11.11;100.00;102813.38;5060668;28;20098;-72
2021/12/15 03:23:20;;;;;;;34.47;20.75;;;;;;;11.10;100.00;102817.19;5066307;28;20063;-71
2021/12/15 03:25:46;;;;;;;35.92;19.60;;;;;;;11.12;100.00;102812.31;5063664;28;20035;-72
2021/12/15 03:36:53;;;;;;;31.70;19.20;;;;;;;11.16;100.00;102808.00;5064042;28;20268;-73
2021/12/15 03:39:20;;;;;;;29.58;18.42;;;;;;;11.14;100.00;102802.75;5066487;28;20033;-72
2021/12/15 03:41:52;;;;;;;27.27;16.75;;;;;;;11.05;100.00;102812.38;5046157;28;20043;-72
2021/12/15 03:44:17;;;;;;;24.35;15.90;;;;;;;11.19;100.00;102813.84;5065387;28;20090;-72
2021/12/15 03:46:43;;;;;;;24.70;16.13;;;;;;;11.32;100.00;102821.00;5064537;28;20030;-71
2021/12/15 03:49:10;;;;;;;30.75;15.75;;;;;;;11.36;100.00;102810.38;5061565;28;20024;-71
2021/12/15 03:51:37;;;;;;;29.80;15.70;;;;;;;11.26;100.00;102813.72;5062015;28;20454;-72
2021/12/15 03:54:05;;;;;;;26.13;14.75;;;;;;;11.15;100.00;102817.28;5027920;28;20025;-72
2021/12/15 03:56:30;;;;;;;23.40;14.18;;;;;;;11.15;100.00;102817.28;5025871;28;20463;-71
2021/12/15 03:58:56;;;;;;;19.77;12.80;;;;;;;11.18;100.00;102820.44;5045412;28;20037;-72
2021/12/15 04:01:23;;;;;;;25.08;14.05;;;;;;;11.16;100.00;102802.50;5045905;28;20139;-72
2021/12/15 04:03:52;;;;;;;24.60;13.98;;;;;;;11.17;100.00;102820.66;5024789;28;20028;-72
2021/12/15 04:06:28;;;;;;;24.13;13.35;;;;;;;11.11;100.00;102829.84;5043029;28;20495;-72
2021/12/15 04:08:55;;;;;;;21.73;13.68;;;;;;;11.28;100.00;102828.06;5044494;28;20112;-72
2021/12/15 04:11:24;;;;;;;23.67;14.48;;;;;;;11.23;100.00;102816.94;5046031;28;20406;-72
2021/12/15 04:13:52;;;;;;;21.50;13.90;;;;;;;11.21;100.00;102824.59;5041900;28;20044;-71
2021/12/15 04:16:59;;;;;;;26.27;12.88;;;;;;;10.95;100.00;102831.38;5045328;28;20082;-73
2021/12/15 04:19:17;;;;;;;24.38;13.85;;;;;;;10.98;100.00;102828.97;5038811;28;20081;-72
2021/12/15 04:21:43;;;;;;;22.13;12.95;;;;;;;11.21;100.00;102830.09;5043890;28;20033;-72
2021/12/15 04:24:14;;;;;;;23.67;11.82;;;;;;;11.00;100.00;102826.00;5046489;28;20036;-71
2021/12/15 04:26:41;;;;;;;21.98;12.52;;;;;;;11.08;100.00;102822.06;5043709;28;20028;-72
2021/12/15 04:29:07;;;;;;;22.83;12.40;;;;;;;11.25;100.00;102824.94;5044767;28;20033;-72
2021/12/15 04:31:37;;;;;;;22.15;12.55;;;;;;;11.16;100.00;102833.53;5045796;28;20119;-72
2021/12/15 04:34:07;;;;;;;26.55;12.68;;;;;;;11.25;100.00;102831.28;5042302;28;20398;-71
2021/12/15 04:36:53;;;;;;;26.92;13.23;;;;;;;11.11;100.00;102829.84;5042412;28;20356;-71
2021/12/15 04:39:23;;;;;;;27.30;12.70;;;;;;;10.98;100.00;102833.63;5045303;28;20110;-72
2021/12/15 04:41:51;;;;;;;24.13;13.20;;;;;;;11.10;100.00;102834.50;5046423;28;20028;-71
2021/12/15 04:44:28;;;;;;;22.30;12.90;;;;;;;11.06;100.00;102836.03;5042452;28;20029;-72
2021/12/15 04:47:00;;;;;;;22.92;13.30;;;;;;;11.26;100.00;102835.69;5044862;28;20025;-72
2021/12/15 04:49:30;;;;;;;24.02;13.27;;;;;;;11.15;100.00;102840.13;5040630;28;20024;-72
2021/12/15 04:51:56;;;;;;;23.02;13.30;;;;;;;11.09;100.00;102830.06;5044592;28;20067;-72
2021/12/15 04:54:22;;;;;;;19.65;12.23;;;;;;;11.21;100.00;102833.69;5047322;28;20036;-72
2021/12/15 04:56:48;;;;;;;21.17;12.07;;;;;;;11.28;100.00;102835.44;5039855;28;20118;-70
2021/12/15 04:59:15;;;;;;;23.17;12.00;;;;;;;11.34;100.00;102829.00;5043541;28;20359;-72
2021/12/15 05:01:41;;;;;;;18.42;12.60;;;;;;;11.50;100.00;102828.28;5043367;28;20469;-72
2021/12/15 05:04:08;;;;;;;24.08;11.60;;;;;;;11.24;100.00;102832.34;5039294;28;20029;-72
2021/12/15 05:06:34;;;;;;;21.98;11.60;;;;;;;11.23;100.00;102838.91;5006306;28;20029;-73
2021/12/15 05:09:00;;;;;;;20.45;12.25;;;;;;;11.36;100.00;102835.97;5043382;28;20032;-73
2021/12/15 05:11:27;;;;;;;22.33;11.55;;;;;;;11.31;100.00;102844.03;5043092;28;20159;-72
2021/12/15 05:13:52;;;;;;;20.25;11.40;;;;;;;11.28;100.00;102841.81;5040637;28;20049;-72
2021/12/15 05:16:18;;;;;;;26.35;11.93;;;;;;;11.32;100.00;102840.25;5043091;28;20344;-73
2021/12/15 05:18:45;;;;;;;21.80;12.07;;;;;;;11.36;100.00;102841.44;5039049;28;20102;-72
2021/12/15 05:21:11;;;;;;;22.55;12.57;;;;;;;11.22;100.00;102842.75;5022166;28;20032;-72
2021/12/15 05:23:39;;;;;;;25.65;12.57;;;;;;;11.41;100.00;102829.72;5044082;28;20032;-72
2021/12/15 05:26:04;;;;;;;23.33;12.43;;;;;;;11.26;100.00;102838.44;5040772;28;20593;-73
2021/12/15 05:28:30;;;;;;;24.23;13.55;;;;;;;11.38;100.00;102839.28;5023744;28;20029;-72
2021/12/15 05:30:57;;;;;;;26.20;12.82;;;;;;;11.24;100.00;102840.59;5039878;28;20025;-73
2021/12/15 05:33:25;;;;;;;21.98;12.27;;;;;;;11.29;100.00;102843.44;5041924;28;20040;-72
2021/12/15 05:35:52;;;;;;;22.65;12.07;;;;;;;11.31;100.00;102849.53;5040618;28;20422;-72
2021/12/15 05:38:18;;;;;;;22.98;13.18;;;;;;;11.31;100.00;102845.97;5042920;28;20063;-71
2021/12/15 05:40:44;;;;;;;26.77;12.90;;;;;;;11.34;100.00;102850.97;5043781;28;20056;-72
2021/12/15 05:43:11;;;;;;;19.65;12.35;;;;;;;11.24;100.00;102850.75;5039122;28;20087;-71
2021/12/15 05:45:38;;;;;;;23.05;12.98;;;;;;;11.46;100.00;102854.59;5041301;28;20059;-72
2021/12/15 05:48:06;;;;;;;24.88;13.77;;;;;;;11.15;100.00;102852.97;5040989;28;20424;-72
2021/12/15 05:50:32;;;;;;;26.13;13.40;;;;;;;11.26;100.00;102860.41;5039657;28;20025;-72
2021/12/15 05:53:00;;;;;;;25.42;14.40;;;;;;;11.32;100.00;102851.22;5042337;28;20024;-72
2021/12/15 05:55:25;;;;;;;28.50;14.10;;;;;;;11.29;100.00;102854.44;5061193;28;20135;-72
2021/12/15 05:57:51;;;;;;;25.77;14.65;;;;;;;11.29;100.00;102846.19;5060989;28;20447;-72
2021/12/15 06:00:21;;;;;;;34.55;14.80;;;;;;;11.34;100.00;102849.06;5062380;28;20372;-72
2021/12/15 06:02:48;;;;;;;24.90;14.15;;;;;;;11.45;100.00;102847.41;5065094;28;20020;-71
2021/12/15 06:05:14;;;;;;;27.83;15.43;;;;;;;11.33;100.00;102843.81;5024121;28;20032;-72
2021/12/15 06:07:40;;;;;;;25.95;15.63;;;;;;;11.31;100.00;102849.53;5064311;28;20028;-74
2021/12/15 06:10:09;;;;;;;27.02;15.57;;;;;;;11.36;100.00;102851.56;5062110;28;20428;-72
2021/12/15 06:12:35;;;;;;;28.20;15.52;;;;;;;11.25;100.00;102852.41;5061415;28;20387;-72
2021/12/15 06:15:02;;;;;;;28.73;16.67;;;;;;;11.42;100.00;102853.38;5062221;28;20027;-71
2021/12/15 06:17:28;;;;;;;29.08;17.20;;;;;;;11.21;100.00;102865.78;5062697;28;20115;-72
2021/12/15 06:19:54;;;;;;;30.25;16.35;;;;;;;11.13;100.00;102857.88;5058184;28;20059;-71
2021/12/15 06:22:25;;;;;;;32.22;17.35;;;;;;;11.04;100.00;102863.72;5045225;28;20097;-72
2021/12/15 06:24:52;;;;;;;36.65;17.73;;;;;;;11.25;100.00;102866.97;5065525;28;20086;-72
2021/12/15 06:27:19;;;;;;;33.35;17.40;;;;;;;11.35;100.00;102866.41;5067007;28;20388;-71
2021/12/15 06:29:50;;;;;;;30.10;17.33;;;;;;;11.25;100.00;102871.63;5047618;28;20027;-72
2021/12/15 06:32:16;;;;;;;33.08;17.67;;;;;;;11.35;100.00;102886.44;5066003;28;20063;-72
2021/12/15 06:34:43;;;;;;;31.20;17.58;;;;;;;11.31;100.00;102878.91;5060620;28;20090;-73
2021/12/15 06:37:11;;;;;;;27.80;17.05;;;;;;;11.38;100.00;102875.00;5066432;28;20117;-73
2021/12/15 06:39:37;;;;;;;30.92;16.70;;;;;;;11.35;100.00;102875.47;5066826;28;20165;-72
2021/12/15 06:42:04;;;;;;;30.45;17.55;;;;;;;11.11;100.00;102882.81;5063916;28;20103;-71
2021/12/15 06:44:29;;;;;;;30.20;16.85;;;;;;;11.32;100.00;102881.44;5065905;28;20111;-72
2021/12/15 07:00:29;;;;;;;31.02;16.55;;;;;;;11.52;100.00;102893.97;5051470;28;20033;-72
2021/12/15 07:02:55;;;;;;;32.38;18.13;;;;;;;11.43;100.00;102899.00;5063608;28;20024;-72
2021/12/15 07:05:23;;;;;;;29.08;17.50;;;;;;;11.64;100.00;102904.97;5058247;28;20021;-72
2021/12/15 07:07:49;;;;;;;24.88;15.70;;;;;;;11.43;100.00;102906.38;5066294;28;20039;-72
2021/12/15 07:10:19;;;;;;;27.02;16.15;;;;;;;11.40;100.00;102911.28;5064342;28;20119;-72
2021/12/15 07:12:47;;;;;;;28.88;16.65;;;;;;;11.40;100.00;102903.03;5061719;28;20114;-72
2021/12/15 07:15:13;;;;;;;28.73;15.10;;;;;;;11.44;100.00;102905.31;5062088;28;20135;-72
2021/12/15 07:17:40;;;;;;;24.63;15.25;;;;;;;11.54;100.00;102900.91;5064520;28;20119;-72
2021/12/15 07:20:30;;;;;;;25.48;15.00;;;;;;;11.27;100.00;102908.75;5059279;28;20272;-72
2021/12/15 07:22:54;;;;;;;27.38;16.08;;;;;;;11.28;100.00;102910.44;5064932;28;20113;-71
2021/12/15 07:25:21;;;;;;;30.15;16.35;;;;;;;11.50;100.00;102907.94;5063441;28;20027;-73
2021/12/15 07:27:47;;;;;;;29.75;15.90;;;;;;;11.54;100.00;102908.31;5062623;28;20505;-72
2021/12/15 07:30:12;;;;;;;27.20;15.60;;;;;;;11.42;100.00;102908.31;5063102;28;20147;-72
2021/12/15 07:32:38;;;;;;;27.70;15.40;;;;;;;11.30;100.00;102908.28;5065117;28;20030;-72
2021/12/15 07:35:08;;;;;;;32.08;16.17;;;;;;;11.38;100.00;102904.38;5057886;28;20032;-72
2021/12/15 07:37:34;;;;;;;27.65;15.35;;;;;;;11.45;100.00;102904.25;5054546;28;20059;-72
2021/12/15 07:40:01;;;;;;;26.05;14.90;;;;;;;11.55;100.00;102901.75;5055281;28;20526;-72
2021/12/15 07:43:23;;;;;;;30.67;15.57;;;;;;;11.51;100.00;102908.78;5062829;28;20103;-72
2021/12/15 07:45:14;;;;;;;28.88;13.70;;;;;;;11.26;100.00;102915.31;5058838;28;20063;-70
2021/12/15 07:47:40;;;;;;;24.92;13.00;;;;;;;11.31;100.00;102909.94;5064129;28;20032;-71
2021/12/15 07:50:06;;;;;;;20.25;12.13;;;;;;;11.44;100.00;102913.56;5058126;28;20347;-72
2021/12/15 07:52:31;;;;;;;21.70;11.70;;;;;;;11.57;100.00;102918.81;5048626;28;20048;-72
2021/12/15 07:54:58;;;;;;;21.50;11.07;;;;;;;11.38;100.00;102909.88;5064799;28;20020;-71
2021/12/15 07:57:27;;;;;;;23.52;11.68;;;;;;;11.37;100.00;102913.69;5044915;28;20376;-72
2021/12/15 07:59:56;;;;;;;20.58;10.38;;;;;;;11.40;100.00;102914.03;5065276;28;20170;-71
2021/12/15 08:02:21;;;;;;;22.63;10.93;;;;;;;11.51;100.00;102922.50;5064851;28;20478;-70
2021/12/15 08:04:47;;;;;;;21.20;10.85;;;;;;;11.56;100.00;102922.66;5060269;28;20036;-71
2021/12/15 08:07:12;;;;;;;20.08;10.95;;;;;;;11.62;100.00;102923.59;5062637;28;20371;-72
2021/12/15 08:09:38;;;;;;;21.77;11.13;;;;;;;11.58;100.00;102921.34;5064130;28;20029;-72
2021/12/15 08:12:04;;;;;;;19.40;10.63;;;;;;;11.70;100.00;102920.50;5042876;28;20451;-71
2021/12/15 08:14:29;;;;;;;20.15;10.48;;;;;;;11.57;100.00;102918.81;5063887;28;20121;-72
2021/12/15 08:16:55;;;;;;;22.98;10.02;;;;;;;11.45;100.00;102926.22;5064264;28;20507;-71
2021/12/15 08:19:20;;;;;;;19.13;9.85;;;;;;;11.52;100.00;102927.78;5051280;28;20045;-71
2021/12/15 08:21:46;;;;;;;14.85;7.88;;;;;;;11.32;100.00;102928.09;5044120;28;20434;-72
2021/12/15 08:24:12;;;;;;;25.02;9.50;;;;;;;11.34;100.00;102933.38;5040029;28;20055;-72
2021/12/15 08:26:38;;;;;;;17.00;8.82;;;;;;;11.53;100.00;102932.19;5039292;28;20520;-73
2021/12/15 08:29:07;;;;;;;17.02;8.93;;;;;;;11.51;100.00;102939.84;5041851;28;20063;-72
2021/12/15 08:31:32;;;;;;;19.98;8.23;;;;;;;11.53;100.00;102943.19;5039999;28;20021;-73
2021/12/15 08:34:00;;;;;;;13.48;8.05;;;;;;;11.35;100.00;102944.13;5038212;28;20025;-73
2021/12/15 08:36:26;;;;;;;19.98;7.57;;;;;;;11.55;100.00;102945.69;5023895;28;20032;-73
2021/12/15 08:38:52;;;;;;;16.73;7.50;;;;;;;11.47;100.00;102938.63;5062744;28;20450;-72
2021/12/15 08:41:25;;;;;;;15.82;6.78;;;;;;;11.77;100.00;102932.19;5059316;28;20386;-72
2021/12/15 08:43:51;;;;;;;;;;;;;;;11.61;100.00;102939.25;5038282;28;20463;-71
2021/12/15 08:46:21;;;;;;;15.80;6.78;;;;;;;11.58;100.00;102943.31;5041486;28;19923;-71
2021/12/15 08:48:48;;;;;;;12.85;5.97;;;;;;;11.63;100.00;102939.84;5040254;28;20479;-73
2021/12/15 08:51:15;;;;;;;11.68;5.30;;;;;;;11.56;100.00;102942.72;5004362;28;20043;-72
2021/12/15 08:53:43;;;;;;;13.60;5.07;;;;;;;11.30;100.00;102945.91;5042214;28;20120;-71
2021/12/15 08:56:09;;;;;;;13.48;5.25;;;;;;;11.63;100.00;102939.84;5040560;28;20036;-71
2021/12/15 08:58:36;;;;;;;10.35;4.20;;;;;;;11.50;100.00;102954.66;5039365;28;20096;-72
2021/12/15 09:01:05;;;;;;;10.27;4.10;;;;;;;11.47;100.00;102962.53;5042194;28;20055;-72
2021/12/15 09:03:31;;;;;;;11.93;4.72;;;;;;;11.75;100.00;102970.91;5036691;28;20155;-72
2021/12/15 09:05:59;;;;;;;9.55;4.30;;;;;;;11.67;100.00;102965.78;5041605;28;20344;-73
2021/12/15 09:08:25;;;;;;;9.40;4.18;;;;;;;11.59;100.00;102966.13;5040246;28;20439;-73
2021/12/15 09:10:53;;;;;;;11.20;5.15;;;;;;;11.64;100.00;102963.53;5041919;28;20029;-71
2021/12/15 09:13:19;;;;;;;12.93;5.00;;;;;;;11.46;100.00;102969.09;5050281;28;20131;-71
2021/12/15 09:15:44;;;;;;;19.15;5.22;;;;;;;11.53;100.00;102970.66;5061541;28;20173;-72
2021/12/15 09:18:12;;;;;;;15.18;5.85;;;;;;;11.44;100.00;102972.06;5059215;28;20047;-71
2021/12/15 09:20:41;;;;;;;14.95;5.75;;;;;;;11.28;100.00;102973.59;5042270;28;20028;-71
2021/12/15 09:23:09;;;;;;;14.43;6.15;;;;;;;11.10;100.00;102979.13;5060242;28;20331;-71
2021/12/15 09:25:36;;;;;;;15.63;6.88;;;;;;;11.38;100.00;102984.84;5061545;28;20513;-72
2021/12/15 09:28:04;;;;;;;15.70;5.47;;;;;;;11.46;100.00;102982.81;5060249;28;20427;-72
2021/12/15 09:30:33;;;;;;;12.15;5.97;;;;;;;11.38;100.00;102990.34;5038232;28;20647;-70
2021/12/15 09:32:58;;;;;;;9.77;4.68;;;;;;;11.34;100.00;102983.63;5041032;28;20055;-71
2021/12/15 09:35:26;;;;;;;9.00;4.30;;;;;;;11.37;100.00;102985.09;5036191;28;20530;-73
2021/12/15 09:37:53;;;;;;;11.88;5.30;;;;;;;11.48;100.00;102986.16;5052684;28;20495;-72
2021/12/15 09:40:21;;;;;;;12.85;5.57;;;;;;;11.49;100.00;102991.41;5059208;28;20081;-72
2021/12/15 09:42:47;;;;;;;11.80;5.78;;;;;;;11.45;100.00;103000.41;5061131;28;20024;-75
2021/12/15 09:45:40;;;;;;;15.73;6.38;;;;;;;11.54;100.00;102997.06;5059996;28;20041;-72
2021/12/15 09:56:24;;;;;;;;;;;;;;;11.36;100.00;103008.09;5047343;28;20032;-72
2021/12/15 10:02:06;;;;;;;13.10;6.15;;;;;;;11.18;100.00;103028.22;5050859;28;20071;-74
2021/12/15 10:05:43;;;;;;;15.45;6.43;;;;;;;11.42;100.00;103023.66;5037376;28;20536;-73
2021/12/15 10:18:31;;;;;;;18.30;7.05;;;;;;;11.57;100.00;103026.78;5040705;28;20048;-73
2021/12/15 10:20:57;;;;;;;18.55;7.13;;;;;;;11.54;100.00;103024.53;5041757;28;20548;-73
2021/12/15 10:23:29;;;;;;;16.67;6.00;;;;;;;11.28;100.00;103027.66;5040550;28;20083;-73
2021/12/15 10:25:57;;;;;;;11.98;5.97;;;;;;;11.31;100.00;103029.94;5041027;28;20064;-74
2021/12/15 10:28:28;;;;;;;17.73;6.53;;;;;;;11.35;100.00;103025.69;5003520;28;20127;-73
2021/12/15 10:30:59;;;;;;;13.15;5.32;;;;;;;11.27;100.00;103024.09;5041820;28;20025;-73
2021/12/15 10:33:24;;;;;;;13.00;5.40;;;;;;;11.52;100.00;103031.34;5038102;28;20024;-73
2021/12/15 10:36:05;;;;;;;13.15;5.35;;;;;;;11.28;100.00;103024.91;5039759;28;20036;-73
2021/12/15 10:38:43;;;;;;;10.02;4.85;;;;;;;11.23;100.00;103025.63;5041409;28;20052;-73
2021/12/15 10:41:18;;;;;;;11.70;3.90;;;;;;;11.35;100.00;103037.50;5041682;28;20048;-73
2021/12/15 10:43:45;;;;;;;9.15;3.35;;;;;;;11.62;100.00;103037.09;5039622;28;20054;-73
2021/12/15 10:46:40;;;;;;;9.38;3.40;;;;;;;11.45;100.00;103041.59;5047050;28;20104;-74
2021/12/15 10:49:21;;;;;;;9.52;3.00;;;;;;;11.56;100.00;103033.38;5059848;28;20493;-71
2021/12/15 10:51:51;;;;;;;8.32;2.92;;;;;;;11.67;100.00;103039.13;5059804;28;20017;-73
2021/12/15 10:54:16;;;;;;;8.45;3.10;;;;;;;11.84;100.00;103039.25;5060728;28;20024;-72
2021/12/15 10:57:08;;;;;;;11.50;4.13;;;;;;;11.64;100.00;103045.09;5057967;28;20229;-72
2021/12/15 10:59:41;;;;;;;9.93;4.07;;;;;;;11.82;100.00;103038.66;5056993;28;20071;-72
2021/12/15 11:02:12;;;;;;;9.48;4.70;;;;;;;11.80;100.00;103046.31;5043634;28;20021;-72
2021/12/15 11:04:52;;;;;;;9.95;4.72;;;;;;;11.95;100.00;103044.84;5038999;28;20037;-72
2021/12/15 11:07:17;;;;;;;11.75;4.05;;;;;;;11.82;100.00;103035.94;5036965;28;20028;-73
2021/12/15 11:09:56;;;;;;;12.57;4.45;;;;;;;12.13;100.00;103037.53;5038588;28;20407;-73
2021/12/15 11:12:30;;;;;;;13.20;4.22;;;;;;;11.77;100.00;103026.50;5037754;28;20095;-73
2021/12/15 11:14:59;;;;;;;11.77;4.07;;;;;;;11.98;100.00;103031.69;5045429;28;20037;-73
2021/12/15 11:17:31;;;;;;;9.45;3.30;;;;;;;11.82;100.00;103030.44;5062705;28;20025;-73
2021/12/15 11:20:23;;;;;;;7.53;3.15;;;;;;;12.25;100.00;103034.81;5063706;28;20040;-74
2021/12/15 11:23:05;;;;;;;8.60;2.60;;;;;;;12.07;100.00;103038.50;5055399;28;20029;-74
2021/12/15 11:25:52;;;;;;;9.70;3.05;;;;;;;12.20;100.00;103034.66;5044100;28;20028;-74
2021/12/15 11:28:30;;;;;;;9.57;2.60;;;;;;;12.32;100.00;103035.50;5039945;28;20041;-72
2021/12/15 11:31:05;;;;;;;6.15;2.60;;;;;;;12.35;100.00;103034.16;5053723;28;20487;-73
2021/12/15 11:33:45;;;;;;;11.85;3.85;;;;;;;12.20;100.00;103034.66;5045497;28;20025;-73
2021/12/15 11:36:25;;;;;;;9.95;2.67;;;;;;;11.99;100.00;103039.69;5042161;28;20150;-74
2021/12/15 11:39:24;;;;;;;9.07;2.78;;;;;;;12.19;100.00;103049.50;5044995;28;20453;-73
2021/12/15 11:41:52;;;;;;;11.00;2.75;;;;;;;12.43;100.00;103044.81;5042528;28;20365;-73
2021/12/15 11:44:21;;;;;;;9.98;2.50;;;;;;;12.56;100.00;103043.72;5042186;28;20020;-71
2021/12/15 11:46:50;;;;;;;8.05;2.70;;;;;;;12.22;100.00;103040.78;5043503;28;20029;-73
2021/12/15 11:49:29;;;;;;;10.00;3.30;;;;;;;12.39;100.00;103046.38;5039739;28;20029;-74
2021/12/15 11:51:58;;;;;;;10.27;2.92;;;;;;;12.39;100.00;103038.13;5045084;28;20029;-73
2021/12/15 11:54:31;;;;;;;9.90;3.13;;;;;;;12.31;100.00;103028.31;5043262;28;20163;-73
2021/12/15 11:57:01;;;;;;;;;;;;;;;12.24;100.00;103033.94;5045064;28;20144;-72
2021/12/15 11:59:34;;;;;;;10.38;3.25;;;;;;;12.27;100.00;103035.38;5040291;28;19962;-73
2021/12/15 12:02:21;;;;;;;11.13;3.50;;;;;;;12.07;100.00;103036.59;5041642;28;20028;-73
2021/12/15 12:05:12;;;;;;;9.05;3.30;;;;;;;12.01;100.00;103040.28;5059684;28;20179;-72
2021/12/15 12:07:46;;;;;;;9.95;3.55;;;;;;;12.19;100.00;103035.75;5067461;28;20160;-72
2021/12/15 12:10:22;;;;;;;12.40;4.22;;;;;;;12.23;100.00;103028.69;5059778;28;20359;-72
2021/12/15 12:12:56;;;;;;;10.05;3.53;;;;;;;12.21;100.00;103028.09;5042575;28;20032;-73
2021/12/15 12:15:27;;;;;;;9.20;2.75;;;;;;;12.16;100.00;103025.22;5056132;28;20066;-71
2021/12/15 12:17:56;;;;;;;9.43;3.42;;;;;;;12.36;100.00;103017.41;5065135;28;20375;-73
2021/12/15 12:20:31;;;;;;;10.02;2.78;;;;;;;12.27;100.00;103011.47;5041988;28;20060;-72